White Plains, Kentucky
Current Conditions -  °F | °C
As of 8:55 PM on Friday 19 Dec 2014 (Local Time) from K2I0 Reporting Station
Broken Clouds Broken Clouds  
Wind Chill: 30°   Ceiling: 12000
Heat Index: 34°   Visibility: 10mi
Dew Point: 28°   Wind: 5mph
Humidity: 78%   Direction: 60°ENE
Pressure: 30.26"   Gusts: NA
Location:  37.18°N, 87.38°W
Report Text: K2I0 200255Z AUTO 06004KT 10SM BKN120 01/M02 A3026 RMK AO2 T00111024
Loading
Personal Weather Stations






























Interactive Weather Map New forecast layout! Learn more

10-Day Weather Forecast

Advertisements
Track Severe Weather on mobile